sensor_id;sensor_type;location;lat;lon;timestamp;temperature;humidity
21246;DHT22;10781;50.928;4.440;2022-10-26T00:00:00;16.00;99.90
21246;DHT22;10781;50.928;4.440;2022-10-26T00:02:26;16.00;99.90
21246;DHT22;10781;50.928;4.440;2022-10-26T00:04:51;16.00;99.90
21246;DHT22;10781;50.928;4.440;2022-10-26T00:07:17;16.00;99.90
21246;DHT22;10781;50.928;4.440;2022-10-26T00:09:43;16.00;99.90
21246;DHT22;10781;50.928;4.440;2022-10-26T00:12:08;16.10;99.90
21246;DHT22;10781;50.928;4.440;2022-10-26T00:14:34;16.10;99.90
21246;DHT22;10781;50.928;4.440;2022-10-26T00:17:00;16.00;99.90
21246;DHT22;10781;50.928;4.440;2022-10-26T00:19:25;16.00;99.90
21246;DHT22;10781;50.928;4.440;2022-10-26T00:21:51;15.90;99.90
21246;DHT22;10781;50.928;4.440;2022-10-26T00:24:17;15.80;99.90
21246;DHT22;10781;50.928;4.440;2022-10-26T00:26:43;15.80;99.90
21246;DHT22;10781;50.928;4.440;2022-10-26T00:29:10;15.80;99.90
21246;DHT22;10781;50.928;4.440;2022-10-26T00:31:36;15.80;99.90
21246;DHT22;10781;50.928;4.440;2022-10-26T00:34:02;15.80;99.90
21246;DHT22;10781;50.928;4.440;2022-10-26T00:36:27;15.80;99.90
21246;DHT22;10781;50.928;4.440;2022-10-26T00:38:55;15.70;99.90
21246;DHT22;10781;50.928;4.440;2022-10-26T00:41:28;15.60;99.90
21246;DHT22;10781;50.928;4.440;2022-10-26T00:43:54;15.60;99.90
21246;DHT22;10781;50.928;4.440;2022-10-26T00:46:30;15.80;99.90
21246;DHT22;10781;50.928;4.440;2022-10-26T00:49:10;15.90;99.90
21246;DHT22;10781;50.928;4.440;2022-10-26T00:51:47;15.90;99.90
21246;DHT22;10781;50.928;4.440;2022-10-26T00:54:16;15.90;99.90
21246;DHT22;10781;50.928;4.440;2022-10-26T00:56:44;15.70;99.90
21246;DHT22;10781;50.928;4.440;2022-10-26T00:59:11;15.70;99.90
21246;DHT22;10781;50.928;4.440;2022-10-26T01:01:40;15.70;99.90
21246;DHT22;10781;50.928;4.440;2022-10-26T01:04:08;15.60;99.90
21246;DHT22;10781;50.928;4.440;2022-10-26T01:06:34;15.80;99.90
21246;DHT22;10781;50.928;4.440;2022-10-26T01:09:00;16.00;99.90
21246;DHT22;10781;50.928;4.440;2022-10-26T01:11:26;16.00;99.90
21246;DHT22;10781;50.928;4.440;2022-10-26T01:13:52;16.10;99.90
21246;DHT22;10781;50.928;4.440;2022-10-26T01:16:30;16.20;99.90
21246;DHT22;10781;50.928;4.440;2022-10-26T01:22:31;16.20;99.90
21246;DHT22;10781;50.928;4.440;2022-10-26T01:27:44;16.10;99.90
21246;DHT22;10781;50.928;4.440;2022-10-26T01:30:15;16.10;99.90
21246;DHT22;10781;50.928;4.440;2022-10-26T01:33:01;16.00;99.90
21246;DHT22;10781;50.928;4.440;2022-10-26T01:35:31;15.80;99.90
21246;DHT22;10781;50.928;4.440;2022-10-26T01:40:41;15.90;99.90
21246;DHT22;10781;50.928;4.440;2022-10-26T01:43:11;15.90;99.90
21246;DHT22;10781;50.928;4.440;2022-10-26T01:45:41;16.00;99.90
21246;DHT22;10781;50.928;4.440;2022-10-26T01:48:12;15.90;99.90
21246;DHT22;10781;50.928;4.440;2022-10-26T01:50:42;16.00;99.90
21246;DHT22;10781;50.928;4.440;2022-10-26T01:53:13;16.10;99.90
21246;DHT22;10781;50.928;4.440;2022-10-26T01:55:48;16.20;99.90
21246;DHT22;10781;50.928;4.440;2022-10-26T01:58:24;16.30;99.90
21246;DHT22;10781;50.928;4.440;2022-10-26T02:01:05;16.20;99.90
21246;DHT22;10781;50.928;4.440;2022-10-26T02:03:49;16.20;99.90
21246;DHT22;10781;50.928;4.440;2022-10-26T02:06:25;16.30;99.90
21246;DHT22;10781;50.928;4.440;2022-10-26T02:09:19;16.40;99.90
21246;DHT22;10781;50.928;4.440;2022-10-26T02:11:50;16.60;99.90
21246;DHT22;10781;50.928;4.440;2022-10-26T02:17:07;16.50;99.90
21246;DHT22;10781;50.928;4.440;2022-10-26T02:19:50;16.50;99.90
21246;DHT22;10781;50.928;4.440;2022-10-26T02:22:23;16.40;99.90
21246;DHT22;10781;50.928;4.440;2022-10-26T02:24:51;16.40;99.90
21246;DHT22;10781;50.928;4.440;2022-10-26T02:27:25;16.20;99.90
21246;DHT22;10781;50.928;4.440;2022-10-26T02:29:53;15.90;99.90
21246;DHT22;10781;50.928;4.440;2022-10-26T02:32:21;15.90;99.90
21246;DHT22;10781;50.928;4.440;2022-10-26T02:34:48;15.50;99.90
21246;DHT22;10781;50.928;4.440;2022-10-26T02:37:17;15.50;99.90
21246;DHT22;10781;50.928;4.440;2022-10-26T02:39:46;15.40;99.90
21246;DHT22;10781;50.928;4.440;2022-10-26T02:42:13;15.30;99.90
21246;DHT22;10781;50.928;4.440;2022-10-26T02:44:54;15.20;99.90
21246;DHT22;10781;50.928;4.440;2022-10-26T02:47:24;15.00;99.90
21246;DHT22;10781;50.928;4.440;2022-10-26T02:49:51;14.90;99.90
21246;DHT22;10781;50.928;4.440;2022-10-26T02:55:03;14.90;99.90
21246;DHT22;10781;50.928;4.440;2022-10-26T02:57:38;14.90;99.90
21246;DHT22;10781;50.928;4.440;2022-10-26T03:00:09;14.90;99.90
21246;DHT22;10781;50.928;4.440;2022-10-26T03:02:35;15.00;99.90
21246;DHT22;10781;50.928;4.440;2022-10-26T03:05:23;15.00;99.90
21246;DHT22;10781;50.928;4.440;2022-10-26T03:07:49;15.30;99.90
21246;DHT22;10781;50.928;4.440;2022-10-26T03:10:15;15.40;99.90
21246;DHT22;10781;50.928;4.440;2022-10-26T03:12:40;15.40;99.90
21246;DHT22;10781;50.928;4.440;2022-10-26T03:15:06;15.40;99.90
21246;DHT22;10781;50.928;4.440;2022-10-26T03:17:32;15.50;99.90
21246;DHT22;10781;50.928;4.440;2022-10-26T03:19:58;15.60;99.90
21246;DHT22;10781;50.928;4.440;2022-10-26T03:22:23;15.70;99.90
21246;DHT22;10781;50.928;4.440;2022-10-26T03:24:49;15.80;99.90
21246;DHT22;10781;50.928;4.440;2022-10-26T03:27:15;15.80;99.90
21246;DHT22;10781;50.928;4.440;2022-10-26T03:29:40;16.00;99.90
21246;DHT22;10781;50.928;4.440;2022-10-26T03:32:06;16.00;99.90
21246;DHT22;10781;50.928;4.440;2022-10-26T03:34:32;16.00;99.90
21246;DHT22;10781;50.928;4.440;2022-10-26T03:36:58;16.20;99.90
21246;DHT22;10781;50.928;4.440;2022-10-26T03:39:23;16.30;99.90
21246;DHT22;10781;50.928;4.440;2022-10-26T03:41:49;16.40;99.90
21246;DHT22;10781;50.928;4.440;2022-10-26T03:44:15;16.00;99.90
21246;DHT22;10781;50.928;4.440;2022-10-26T03:46:40;15.80;99.90
21246;DHT22;10781;50.928;4.440;2022-10-26T03:49:06;15.70;99.90
21246;DHT22;10781;50.928;4.440;2022-10-26T03:51:31;15.70;99.90
21246;DHT22;10781;50.928;4.440;2022-10-26T03:53:57;15.70;99.90
21246;DHT22;10781;50.928;4.440;2022-10-26T03:56:23;15.60;99.90
21246;DHT22;10781;50.928;4.440;2022-10-26T03:58:48;15.80;99.90
21246;DHT22;10781;50.928;4.440;2022-10-26T04:01:14;16.00;99.90
21246;DHT22;10781;50.928;4.440;2022-10-26T04:03:40;16.20;99.90
21246;DHT22;10781;50.928;4.440;2022-10-26T04:06:05;16.30;99.90
21246;DHT22;10781;50.928;4.440;2022-10-26T04:08:32;16.40;99.90
21246;DHT22;10781;50.928;4.440;2022-10-26T04:10:58;16.40;99.90
21246;DHT22;10781;50.928;4.440;2022-10-26T04:13:23;16.50;99.90
21246;DHT22;10781;50.928;4.440;2022-10-26T04:15:49;16.50;99.90
21246;DHT22;10781;50.928;4.440;2022-10-26T04:18:15;16.40;99.90
21246;DHT22;10781;50.928;4.440;2022-10-26T04:20:41;16.30;99.90
21246;DHT22;10781;50.928;4.440;2022-10-26T04:23:10;16.20;99.90
21246;DHT22;10781;50.928;4.440;2022-10-26T04:25:36;16.20;99.90
21246;DHT22;10781;50.928;4.440;2022-10-26T04:28:03;16.30;99.90
21246;DHT22;10781;50.928;4.440;2022-10-26T04:30:30;16.40;99.90
21246;DHT22;10781;50.928;4.440;2022-10-26T04:32:56;16.40;99.90
21246;DHT22;10781;50.928;4.440;2022-10-26T04:35:22;16.50;99.90
21246;DHT22;10781;50.928;4.440;2022-10-26T04:37:47;16.50;99.90
21246;DHT22;10781;50.928;4.440;2022-10-26T04:40:13;16.50;99.90
21246;DHT22;10781;50.928;4.440;2022-10-26T04:42:46;16.50;99.90
21246;DHT22;10781;50.928;4.440;2022-10-26T04:45:14;16.70;99.90
21246;DHT22;10781;50.928;4.440;2022-10-26T04:47:40;16.70;99.90
21246;DHT22;10781;50.928;4.440;2022-10-26T04:50:06;16.80;99.90
21246;DHT22;10781;50.928;4.440;2022-10-26T04:52:34;16.90;99.90
21246;DHT22;10781;50.928;4.440;2022-10-26T04:55:00;16.90;99.90
21246;DHT22;10781;50.928;4.440;2022-10-26T04:57:26;16.90;99.90
21246;DHT22;10781;50.928;4.440;2022-10-26T04:59:52;16.90;99.90
21246;DHT22;10781;50.928;4.440;2022-10-26T05:02:17;16.80;99.90
21246;DHT22;10781;50.928;4.440;2022-10-26T05:04:45;16.80;99.90
21246;DHT22;10781;50.928;4.440;2022-10-26T05:07:10;16.80;99.90
21246;DHT22;10781;50.928;4.440;2022-10-26T05:09:36;16.90;99.90
21246;DHT22;10781;50.928;4.440;2022-10-26T05:12:02;17.00;99.90
21246;DHT22;10781;50.928;4.440;2022-10-26T05:14:27;17.00;99.90
21246;DHT22;10781;50.928;4.440;2022-10-26T05:16:53;17.10;99.90
21246;DHT22;10781;50.928;4.440;2022-10-26T05:19:20;17.20;99.90
21246;DHT22;10781;50.928;4.440;2022-10-26T05:21:45;17.10;99.90
21246;DHT22;10781;50.928;4.440;2022-10-26T05:24:11;17.10;99.90
21246;DHT22;10781;50.928;4.440;2022-10-26T05:26:37;17.20;99.90
21246;DHT22;10781;50.928;4.440;2022-10-26T05:29:02;17.20;99.90
21246;DHT22;10781;50.928;4.440;2022-10-26T05:31:28;17.30;99.90
21246;DHT22;10781;50.928;4.440;2022-10-26T05:33:53;17.00;99.90
21246;DHT22;10781;50.928;4.440;2022-10-26T05:36:19;16.80;99.90
21246;DHT22;10781;50.928;4.440;2022-10-26T05:38:45;16.80;99.90
21246;DHT22;10781;50.928;4.440;2022-10-26T05:41:11;16.70;99.90
21246;DHT22;10781;50.928;4.440;2022-10-26T05:43:37;16.50;99.90
21246;DHT22;10781;50.928;4.440;2022-10-26T05:46:03;16.60;99.90
21246;DHT22;10781;50.928;4.440;2022-10-26T05:48:29;16.60;99.90
21246;DHT22;10781;50.928;4.440;2022-10-26T05:50:58;16.50;99.90
21246;DHT22;10781;50.928;4.440;2022-10-26T05:53:24;16.40;99.90
21246;DHT22;10781;50.928;4.440;2022-10-26T05:55:50;16.30;99.90
21246;DHT22;10781;50.928;4.440;2022-10-26T05:58:16;16.20;99.90
21246;DHT22;10781;50.928;4.440;2022-10-26T06:06:43;16.50;99.90
21246;DHT22;10781;50.928;4.440;2022-10-26T06:09:11;16.50;99.90
21246;DHT22;10781;50.928;4.440;2022-10-26T06:11:37;16.50;99.90
21246;DHT22;10781;50.928;4.440;2022-10-26T06:14:03;16.50;99.90
21246;DHT22;10781;50.928;4.440;2022-10-26T06:17:24;16.40;99.90
21246;DHT22;10781;50.928;4.440;2022-10-26T06:25:21;16.50;99.90
21246;DHT22;10781;50.928;4.440;2022-10-26T06:28:07;16.50;99.90
21246;DHT22;10781;50.928;4.440;2022-10-26T06:30:39;16.60;99.90
21246;DHT22;10781;50.928;4.440;2022-10-26T06:33:05;16.70;99.90
21246;DHT22;10781;50.928;4.440;2022-10-26T06:38:08;16.60;99.90
21246;DHT22;10781;50.928;4.440;2022-10-26T06:40:38;16.60;99.90
21246;DHT22;10781;50.928;4.440;2022-10-26T06:43:12;16.70;99.90
21246;DHT22;10781;50.928;4.440;2022-10-26T06:45:43;16.70;99.90
21246;DHT22;10781;50.928;4.440;2022-10-26T06:48:15;16.70;99.90
21246;DHT22;10781;50.928;4.440;2022-10-26T06:50:53;16.70;99.90
21246;DHT22;10781;50.928;4.440;2022-10-26T06:55:46;16.60;99.90
21246;DHT22;10781;50.928;4.440;2022-10-26T06:58:19;16.70;99.90
21246;DHT22;10781;50.928;4.440;2022-10-26T07:00:48;16.80;99.90
21246;DHT22;10781;50.928;4.440;2022-10-26T07:03:14;16.80;99.90
21246;DHT22;10781;50.928;4.440;2022-10-26T07:05:40;16.80;99.90
21246;DHT22;10781;50.928;4.440;2022-10-26T07:08:07;16.80;99.90
21246;DHT22;10781;50.928;4.440;2022-10-26T07:10:32;16.90;99.90
21246;DHT22;10781;50.928;4.440;2022-10-26T07:13:05;17.00;99.90
21246;DHT22;10781;50.928;4.440;2022-10-26T07:15:32;17.00;99.90
21246;DHT22;10781;50.928;4.440;2022-10-26T07:17:58;17.10;99.90
21246;DHT22;10781;50.928;4.440;2022-10-26T07:20:24;17.00;99.90
21246;DHT22;10781;50.928;4.440;2022-10-26T07:22:51;17.10;99.90
21246;DHT22;10781;50.928;4.440;2022-10-26T07:25:17;17.20;99.90
21246;DHT22;10781;50.928;4.440;2022-10-26T07:27:42;17.20;99.90
21246;DHT22;10781;50.928;4.440;2022-10-26T07:30:09;17.30;99.90
21246;DHT22;10781;50.928;4.440;2022-10-26T07:32:34;17.40;99.90
21246;DHT22;10781;50.928;4.440;2022-10-26T07:35:00;17.50;99.90
21246;DHT22;10781;50.928;4.440;2022-10-26T07:37:26;17.50;99.90
21246;DHT22;10781;50.928;4.440;2022-10-26T07:39:51;17.40;99.90
21246;DHT22;10781;50.928;4.440;2022-10-26T07:42:17;17.30;99.90
21246;DHT22;10781;50.928;4.440;2022-10-26T07:44:43;17.20;99.90
21246;DHT22;10781;50.928;4.440;2022-10-26T07:47:08;17.30;99.90
21246;DHT22;10781;50.928;4.440;2022-10-26T07:49:34;17.40;99.90
21246;DHT22;10781;50.928;4.440;2022-10-26T07:52:00;17.40;99.90
21246;DHT22;10781;50.928;4.440;2022-10-26T07:54:25;17.50;99.90
21246;DHT22;10781;50.928;4.440;2022-10-26T07:56:51;17.50;99.90
21246;DHT22;10781;50.928;4.440;2022-10-26T07:59:17;17.60;99.90
21246;DHT22;10781;50.928;4.440;2022-10-26T08:01:43;17.70;99.90
21246;DHT22;10781;50.928;4.440;2022-10-26T08:04:08;17.70;99.90
21246;DHT22;10781;50.928;4.440;2022-10-26T08:06:34;17.80;99.90
21246;DHT22;10781;50.928;4.440;2022-10-26T08:09:00;17.70;99.90
21246;DHT22;10781;50.928;4.440;2022-10-26T08:11:26;17.70;99.90
21246;DHT22;10781;50.928;4.440;2022-10-26T08:13:52;17.70;99.90
21246;DHT22;10781;50.928;4.440;2022-10-26T08:16:18;17.60;99.90
21246;DHT22;10781;50.928;4.440;2022-10-26T08:18:50;17.60;99.90
21246;DHT22;10781;50.928;4.440;2022-10-26T08:21:16;17.70;99.90
21246;DHT22;10781;50.928;4.440;2022-10-26T08:23:42;17.70;99.90
21246;DHT22;10781;50.928;4.440;2022-10-26T08:26:08;17.70;99.90
21246;DHT22;10781;50.928;4.440;2022-10-26T08:28:36;17.80;99.90
21246;DHT22;10781;50.928;4.440;2022-10-26T08:31:03;17.90;99.90
21246;DHT22;10781;50.928;4.440;2022-10-26T08:33:28;18.00;99.90
21246;DHT22;10781;50.928;4.440;2022-10-26T08:35:59;18.10;99.90
21246;DHT22;10781;50.928;4.440;2022-10-26T08:38:25;18.20;99.90
21246;DHT22;10781;50.928;4.440;2022-10-26T08:40:51;18.20;99.90
21246;DHT22;10781;50.928;4.440;2022-10-26T08:46:05;18.30;99.90
21246;DHT22;10781;50.928;4.440;2022-10-26T08:48:37;18.40;99.90
21246;DHT22;10781;50.928;4.440;2022-10-26T08:51:24;18.50;99.90
21246;DHT22;10781;50.928;4.440;2022-10-26T08:53:58;18.70;99.90
21246;DHT22;10781;50.928;4.440;2022-10-26T08:56:51;18.80;99.90
21246;DHT22;10781;50.928;4.440;2022-10-26T09:01:53;18.80;99.90
21246;DHT22;10781;50.928;4.440;2022-10-26T09:04:20;18.90;99.90
21246;DHT22;10781;50.928;4.440;2022-10-26T09:07:02;18.90;99.90
21246;DHT22;10781;50.928;4.440;2022-10-26T09:25:44;19.30;99.90
21246;DHT22;10781;50.928;4.440;2022-10-26T09:28:16;19.40;99.90
21246;DHT22;10781;50.928;4.440;2022-10-26T09:30:46;19.40;99.90
21246;DHT22;10781;50.928;4.440;2022-10-26T09:33:16;19.60;99.90
21246;DHT22;10781;50.928;4.440;2022-10-26T09:35:43;19.80;99.90
21246;DHT22;10781;50.928;4.440;2022-10-26T09:38:35;20.00;99.90
21246;DHT22;10781;50.928;4.440;2022-10-26T09:46:17;19.90;99.90
21246;DHT22;10781;50.928;4.440;2022-10-26T09:48:51;19.90;99.90
21246;DHT22;10781;50.928;4.440;2022-10-26T09:51:18;20.00;99.90
21246;DHT22;10781;50.928;4.440;2022-10-26T09:53:44;20.00;99.90
21246;DHT22;10781;50.928;4.440;2022-10-26T09:56:11;20.00;99.90
21246;DHT22;10781;50.928;4.440;2022-10-26T09:58:41;20.10;99.90
21246;DHT22;10781;50.928;4.440;2022-10-26T10:01:27;20.20;99.90
21246;DHT22;10781;50.928;4.440;2022-10-26T10:06:43;20.30;99.90
21246;DHT22;10781;50.928;4.440;2022-10-26T10:09:17;20.40;99.90
21246;DHT22;10781;50.928;4.440;2022-10-26T10:14:15;20.60;99.90
21246;DHT22;10781;50.928;4.440;2022-10-26T10:17:02;20.60;99.90
21246;DHT22;10781;50.928;4.440;2022-10-26T10:19:33;20.70;99.90
21246;DHT22;10781;50.928;4.440;2022-10-26T10:25:00;21.00;99.90
21246;DHT22;10781;50.928;4.440;2022-10-26T10:27:27;21.20;99.90
21246;DHT22;10781;50.928;4.440;2022-10-26T10:30:22;21.30;99.90
21246;DHT22;10781;50.928;4.440;2022-10-26T10:33:10;21.30;99.90
21246;DHT22;10781;50.928;4.440;2022-10-26T10:35:38;21.40;99.90
21246;DHT22;10781;50.928;4.440;2022-10-26T10:38:04;21.40;99.90
21246;DHT22;10781;50.928;4.440;2022-10-26T10:40:31;21.50;99.90
21246;DHT22;10781;50.928;4.440;2022-10-26T10:43:11;21.60;99.90
21246;DHT22;10781;50.928;4.440;2022-10-26T10:45:39;21.80;99.90
21246;DHT22;10781;50.928;4.440;2022-10-26T10:48:15;22.30;99.90
21246;DHT22;10781;50.928;4.440;2022-10-26T10:53:22;24.10;99.90
21246;DHT22;10781;50.928;4.440;2022-10-26T10:56:12;24.70;99.90
21246;DHT22;10781;50.928;4.440;2022-10-26T11:01:13;26.00;99.90
21246;DHT22;10781;50.928;4.440;2022-10-26T11:03:43;25.30;99.90
21246;DHT22;10781;50.928;4.440;2022-10-26T11:06:17;25.50;99.90
21246;DHT22;10781;50.928;4.440;2022-10-26T11:08:54;25.80;99.90
21246;DHT22;10781;50.928;4.440;2022-10-26T11:11:42;26.00;99.90
21246;DHT22;10781;50.928;4.440;2022-10-26T11:14:40;26.00;99.90
21246;DHT22;10781;50.928;4.440;2022-10-26T11:17:20;24.50;99.90
21246;DHT22;10781;50.928;4.440;2022-10-26T11:20:00;23.90;99.90
21246;DHT22;10781;50.928;4.440;2022-10-26T11:22:34;24.20;99.90
21246;DHT22;10781;50.928;4.440;2022-10-26T11:25:10;24.40;99.90
21246;DHT22;10781;50.928;4.440;2022-10-26T11:28:04;24.90;99.90
21246;DHT22;10781;50.928;4.440;2022-10-26T11:30:35;25.70;99.90
21246;DHT22;10781;50.928;4.440;2022-10-26T11:33:14;25.70;99.90
21246;DHT22;10781;50.928;4.440;2022-10-26T11:41:50;26.10;99.90
21246;DHT22;10781;50.928;4.440;2022-10-26T11:44:39;27.30;99.90
21246;DHT22;10781;50.928;4.440;2022-10-26T11:47:18;27.90;99.90
21246;DHT22;10781;50.928;4.440;2022-10-26T11:49:56;28.90;99.90
21246;DHT22;10781;50.928;4.440;2022-10-26T11:52:37;29.50;99.90
21246;DHT22;10781;50.928;4.440;2022-10-26T11:55:04;30.10;99.90
21246;DHT22;10781;50.928;4.440;2022-10-26T11:57:34;30.30;99.90
21246;DHT22;10781;50.928;4.440;2022-10-26T12:02:29;28.80;99.90
21246;DHT22;10781;50.928;4.440;2022-10-26T12:05:05;27.70;99.90
21246;DHT22;10781;50.928;4.440;2022-10-26T12:07:35;27.70;99.90
21246;DHT22;10781;50.928;4.440;2022-10-26T12:10:04;27.80;99.90
21246;DHT22;10781;50.928;4.440;2022-10-26T12:12:57;28.30;99.90
21246;DHT22;10781;50.928;4.440;2022-10-26T12:15:33;28.30;99.90
21246;DHT22;10781;50.928;4.440;2022-10-26T12:18:19;28.50;99.90
21246;DHT22;10781;50.928;4.440;2022-10-26T12:23:17;29.20;99.90
21246;DHT22;10781;50.928;4.440;2022-10-26T12:25:44;29.10;99.90
21246;DHT22;10781;50.928;4.440;2022-10-26T12:34:06;30.50;99.90
21246;DHT22;10781;50.928;4.440;2022-10-26T12:39:37;30.60;99.90
21246;DHT22;10781;50.928;4.440;2022-10-26T12:47:00;31.30;99.90
21246;DHT22;10781;50.928;4.440;2022-10-26T12:50:01;31.30;99.00
21246;DHT22;10781;50.928;4.440;2022-10-26T12:52:55;31.10;98.80
21246;DHT22;10781;50.928;4.440;2022-10-26T13:09:04;27.60;99.90
21246;DHT22;10781;50.928;4.440;2022-10-26T13:11:34;27.00;99.90
21246;DHT22;10781;50.928;4.440;2022-10-26T13:14:05;26.60;99.90
21246;DHT22;10781;50.928;4.440;2022-10-26T13:16:32;25.80;99.90
21246;DHT22;10781;50.928;4.440;2022-10-26T13:18:58;25.60;99.90
21246;DHT22;10781;50.928;4.440;2022-10-26T13:21:25;25.50;99.90
21246;DHT22;10781;50.928;4.440;2022-10-26T13:23:55;25.50;99.90
21246;DHT22;10781;50.928;4.440;2022-10-26T13:26:29;25.30;99.90
21246;DHT22;10781;50.928;4.440;2022-10-26T13:29:01;24.70;99.90
21246;DHT22;10781;50.928;4.440;2022-10-26T13:33:58;24.60;99.90
21246;DHT22;10781;50.928;4.440;2022-10-26T13:36:30;24.50;99.90
21246;DHT22;10781;50.928;4.440;2022-10-26T13:38:59;24.50;99.90
21246;DHT22;10781;50.928;4.440;2022-10-26T13:41:33;24.50;99.90
21246;DHT22;10781;50.928;4.440;2022-10-26T13:44:04;24.30;99.90
21246;DHT22;10781;50.928;4.440;2022-10-26T13:46:35;24.10;99.90
21246;DHT22;10781;50.928;4.440;2022-10-26T13:49:21;24.00;99.90
21246;DHT22;10781;50.928;4.440;2022-10-26T13:51:49;23.90;99.90
21246;DHT22;10781;50.928;4.440;2022-10-26T13:54:41;23.80;99.90
21246;DHT22;10781;50.928;4.440;2022-10-26T13:57:38;23.70;99.90
21246;DHT22;10781;50.928;4.440;2022-10-26T14:00:19;23.60;99.90
21246;DHT22;10781;50.928;4.440;2022-10-26T14:02:46;23.70;99.90
21246;DHT22;10781;50.928;4.440;2022-10-26T14:05:14;23.60;99.90
21246;DHT22;10781;50.928;4.440;2022-10-26T14:07:56;23.40;99.90
21246;DHT22;10781;50.928;4.440;2022-10-26T14:10:40;23.50;99.90
21246;DHT22;10781;50.928;4.440;2022-10-26T14:13:08;23.40;99.90
21246;DHT22;10781;50.928;4.440;2022-10-26T14:15:44;23.30;99.90
21246;DHT22;10781;50.928;4.440;2022-10-26T14:18:45;23.20;99.90
21246;DHT22;10781;50.928;4.440;2022-10-26T14:21:06;23.10;99.90
21246;DHT22;10781;50.928;4.440;2022-10-26T14:23:48;23.20;99.90
21246;DHT22;10781;50.928;4.440;2022-10-26T14:26:28;23.20;99.90
21246;DHT22;10781;50.928;4.440;2022-10-26T14:28:59;23.40;99.90
21246;DHT22;10781;50.928;4.440;2022-10-26T14:31:30;23.00;99.90
21246;DHT22;10781;50.928;4.440;2022-10-26T14:33:57;22.90;99.90
21246;DHT22;10781;50.928;4.440;2022-10-26T14:36:31;22.90;99.90
21246;DHT22;10781;50.928;4.440;2022-10-26T14:39:02;22.90;99.90
21246;DHT22;10781;50.928;4.440;2022-10-26T14:41:29;22.90;99.90
21246;DHT22;10781;50.928;4.440;2022-10-26T14:43:57;22.80;99.90
21246;DHT22;10781;50.928;4.440;2022-10-26T14:46:24;22.60;99.90
21246;DHT22;10781;50.928;4.440;2022-10-26T14:48:55;22.50;99.90
21246;DHT22;10781;50.928;4.440;2022-10-26T14:51:42;22.40;99.90
21246;DHT22;10781;50.928;4.440;2022-10-26T14:54:19;22.50;99.90
21246;DHT22;10781;50.928;4.440;2022-10-26T14:56:45;22.70;99.90
21246;DHT22;10781;50.928;4.440;2022-10-26T14:59:24;22.70;99.90
21246;DHT22;10781;50.928;4.440;2022-10-26T15:01:52;22.70;99.90
21246;DHT22;10781;50.928;4.440;2022-10-26T15:04:34;22.70;99.90
21246;DHT22;10781;50.928;4.440;2022-10-26T15:09:42;22.30;99.90
21246;DHT22;10781;50.928;4.440;2022-10-26T15:12:37;22.50;99.90
21246;DHT22;10781;50.928;4.440;2022-10-26T15:17:53;22.30;99.90
21246;DHT22;10781;50.928;4.440;2022-10-26T15:20:22;22.30;99.90
21246;DHT22;10781;50.928;4.440;2022-10-26T15:23:01;22.30;99.90
21246;DHT22;10781;50.928;4.440;2022-10-26T15:25:29;22.30;99.90
21246;DHT22;10781;50.928;4.440;2022-10-26T15:28:28;22.00;99.90
21246;DHT22;10781;50.928;4.440;2022-10-26T15:33:27;22.00;99.90
21246;DHT22;10781;50.928;4.440;2022-10-26T15:36:14;22.00;99.90
21246;DHT22;10781;50.928;4.440;2022-10-26T15:38:41;22.00;99.90
21246;DHT22;10781;50.928;4.440;2022-10-26T15:41:16;21.90;99.90
21246;DHT22;10781;50.928;4.440;2022-10-26T15:43:46;21.80;99.90
21246;DHT22;10781;50.928;4.440;2022-10-26T15:46:12;21.90;99.90
21246;DHT22;10781;50.928;4.440;2022-10-26T15:48:38;21.70;99.90
21246;DHT22;10781;50.928;4.440;2022-10-26T15:51:06;21.60;99.90
21246;DHT22;10781;50.928;4.440;2022-10-26T15:53:35;21.70;99.90
21246;DHT22;10781;50.928;4.440;2022-10-26T15:56:01;21.90;99.90
21246;DHT22;10781;50.928;4.440;2022-10-26T15:58:28;21.70;99.90
21246;DHT22;10781;50.928;4.440;2022-10-26T16:00:55;21.50;99.90
21246;DHT22;10781;50.928;4.440;2022-10-26T16:03:23;21.40;99.90
21246;DHT22;10781;50.928;4.440;2022-10-26T16:05:56;21.30;99.90
21246;DHT22;10781;50.928;4.440;2022-10-26T16:08:22;21.20;99.90
21246;DHT22;10781;50.928;4.440;2022-10-26T16:10:50;21.20;99.90
21246;DHT22;10781;50.928;4.440;2022-10-26T16:13:16;21.30;99.90
21246;DHT22;10781;50.928;4.440;2022-10-26T16:15:42;21.30;99.90
21246;DHT22;10781;50.928;4.440;2022-10-26T16:18:08;21.40;99.90
21246;DHT22;10781;50.928;4.440;2022-10-26T16:20:33;21.40;99.90
21246;DHT22;10781;50.928;4.440;2022-10-26T16:22:59;21.30;99.90
21246;DHT22;10781;50.928;4.440;2022-10-26T16:25:33;21.40;99.90
21246;DHT22;10781;50.928;4.440;2022-10-26T16:27:59;21.40;99.90
21246;DHT22;10781;50.928;4.440;2022-10-26T16:30:24;21.40;99.90
21246;DHT22;10781;50.928;4.440;2022-10-26T16:32:50;21.40;99.90
21246;DHT22;10781;50.928;4.440;2022-10-26T16:35:16;21.40;99.90
21246;DHT22;10781;50.928;4.440;2022-10-26T16:37:42;21.30;99.90
21246;DHT22;10781;50.928;4.440;2022-10-26T16:40:08;21.30;99.90
21246;DHT22;10781;50.928;4.440;2022-10-26T16:42:34;21.20;99.90
21246;DHT22;10781;50.928;4.440;2022-10-26T16:45:00;21.10;99.90
21246;DHT22;10781;50.928;4.440;2022-10-26T16:47:26;21.00;99.90
21246;DHT22;10781;50.928;4.440;2022-10-26T16:49:52;20.90;99.90
21246;DHT22;10781;50.928;4.440;2022-10-26T16:52:18;20.80;99.90
21246;DHT22;10781;50.928;4.440;2022-10-26T16:54:43;20.80;99.90
21246;DHT22;10781;50.928;4.440;2022-10-26T16:57:09;20.70;99.90
21246;DHT22;10781;50.928;4.440;2022-10-26T16:59:35;20.70;99.90
21246;DHT22;10781;50.928;4.440;2022-10-26T17:02:01;20.70;99.90
21246;DHT22;10781;50.928;4.440;2022-10-26T17:04:26;20.60;99.90
21246;DHT22;10781;50.928;4.440;2022-10-26T17:06:52;20.60;99.90
21246;DHT22;10781;50.928;4.440;2022-10-26T17:09:18;20.60;99.90
21246;DHT22;10781;50.928;4.440;2022-10-26T17:11:43;20.50;99.90
21246;DHT22;10781;50.928;4.440;2022-10-26T17:14:09;20.60;99.90
21246;DHT22;10781;50.928;4.440;2022-10-26T17:16:34;20.60;99.90
21246;DHT22;10781;50.928;4.440;2022-10-26T17:19:00;20.60;99.90
21246;DHT22;10781;50.928;4.440;2022-10-26T17:21:31;20.50;99.90
21246;DHT22;10781;50.928;4.440;2022-10-26T17:23:58;20.40;99.90
21246;DHT22;10781;50.928;4.440;2022-10-26T17:26:24;20.50;99.90
21246;DHT22;10781;50.928;4.440;2022-10-26T17:28:51;20.40;99.90
21246;DHT22;10781;50.928;4.440;2022-10-26T17:31:17;20.50;99.90
21246;DHT22;10781;50.928;4.440;2022-10-26T17:33:43;20.60;99.90
21246;DHT22;10781;50.928;4.440;2022-10-26T17:36:11;20.60;99.90
21246;DHT22;10781;50.928;4.440;2022-10-26T17:38:39;20.50;99.90
21246;DHT22;10781;50.928;4.440;2022-10-26T17:41:07;20.40;99.90
21246;DHT22;10781;50.928;4.440;2022-10-26T17:43:35;20.50;99.90
21246;DHT22;10781;50.928;4.440;2022-10-26T17:46:05;20.70;99.90
21246;DHT22;10781;50.928;4.440;2022-10-26T17:48:31;20.70;99.90